createdAt,value
2022-10-11T00:00:21.546Z,553.8
2022-10-11T00:01:24.471Z,553.6
2022-10-11T00:02:28.506Z,553.6
2022-10-11T00:03:30.997Z,553.5
2022-10-11T00:04:33.224Z,553.8
2022-10-11T00:05:35.415Z,553.5
2022-10-11T00:06:37.605Z,553.5
2022-10-11T00:07:39.828Z,553.4
2022-10-11T00:08:42.300Z,552.8
2022-10-11T00:09:44.502Z,553.1
2022-10-11T00:10:46.479Z,553.3
2022-10-11T00:11:48.431Z,552.9
2022-10-11T00:12:50.611Z,553.1
2022-10-11T00:13:53.085Z,553.3
2022-10-11T00:14:55.295Z,553
2022-10-11T00:15:57.500Z,552.9
2022-10-11T00:16:59.713Z,552.9
2022-10-11T00:19:06.605Z,552.7
2022-10-11T00:20:09.135Z,552.7
2022-10-11T00:21:11.619Z,552.2
2022-10-11T00:22:14.085Z,552.6
2022-10-11T00:23:16.563Z,552.4
2022-10-11T00:24:18.762Z,552.3
2022-10-11T00:25:20.940Z,552.3
2022-10-11T00:26:23.430Z,552.3
2022-10-11T00:27:25.945Z,552.2
2022-10-11T00:28:28.838Z,551.9
2022-10-11T00:29:31.054Z,552.2
2022-10-11T00:30:33.245Z,551.8
2022-10-11T00:31:37.317Z,552.1
2022-10-11T00:32:39.795Z,552.1
2022-10-11T00:33:41.975Z,552.1
2022-10-11T00:34:44.176Z,551.6
2022-10-11T00:35:46.707Z,551.4
2022-10-11T00:36:48.893Z,551.4
2022-10-11T00:37:50.814Z,551.8
2022-10-11T00:38:53.286Z,551.8
2022-10-11T00:39:55.488Z,551.4
2022-10-11T00:40:57.959Z,551.7
2022-10-11T00:42:00.152Z,551.9
2022-10-11T00:43:02.362Z,551.4
2022-10-11T00:44:04.564Z,551.1
2022-10-11T00:45:07.032Z,550.9
2022-10-11T00:46:10.694Z,550.9
2022-10-11T00:47:13.165Z,551.2
2022-10-11T00:48:15.636Z,551.1
2022-10-11T00:49:17.561Z,551
2022-10-11T00:50:19.493Z,551.2
2022-10-11T00:51:22.036Z,551.1
2022-10-11T00:52:23.960Z,551
2022-10-11T00:53:25.863Z,550.6
2022-10-11T00:54:28.332Z,550.7
2022-10-11T00:55:30.796Z,550.7
2022-10-11T00:56:32.734Z,550.7
2022-10-11T00:57:34.926Z,550.6
2022-10-11T00:58:37.448Z,550.6
2022-10-11T00:59:39.626Z,550.9
2022-10-11T01:00:42.101Z,550.7
2022-10-11T01:01:44.847Z,550.7
2022-10-11T01:02:47.359Z,550.9
2022-10-11T01:03:49.534Z,550.6
2022-10-11T01:05:56.996Z,550.8
2022-10-11T01:06:58.944Z,550.7
2022-10-11T01:08:01.187Z,550.5
2022-10-11T01:09:03.374Z,550.7
2022-10-11T01:10:05.852Z,550.5
2022-10-11T01:11:08.046Z,550.9
2022-10-11T01:12:10.518Z,551
2022-10-11T01:13:13.036Z,550.9
2022-10-11T01:14:14.991Z,550.5
2022-10-11T01:15:17.213Z,550.8
2022-10-11T01:16:19.404Z,550.4
2022-10-11T01:17:21.608Z,550.6
2022-10-11T01:18:24.083Z,550.4
2022-10-11T01:19:26.000Z,550.5
2022-10-11T01:20:27.925Z,550.6
2022-10-11T01:21:30.401Z,550.5
2022-10-11T01:22:32.925Z,550.7
2022-10-11T01:23:35.114Z,550.8
2022-10-11T01:24:37.583Z,551.1
2022-10-11T01:25:40.065Z,550.8
2022-10-11T01:26:41.984Z,551
2022-10-11T01:27:44.184Z,550.7
2022-10-11T01:28:47.255Z,550.9
2022-10-11T01:29:49.528Z,551.1
2022-10-11T01:30:52.010Z,550.9
2022-10-11T01:31:54.201Z,550.7
2022-10-11T01:32:56.679Z,550.7
2022-10-11T01:33:58.871Z,550.6
2022-10-11T01:35:01.066Z,550.5
2022-10-11T01:36:05.914Z,550.7
2022-10-11T01:37:08.616Z,550.9
2022-10-11T01:38:11.145Z,550.9
2022-10-11T01:39:13.615Z,550.7
2022-10-11T01:40:16.078Z,551.1
2022-10-11T01:41:18.550Z,550.6
2022-10-11T01:42:21.039Z,550.7
2022-10-11T01:43:23.562Z,551.2
2022-10-11T01:44:25.542Z,551
2022-10-11T01:45:28.098Z,551.3
2022-10-11T01:46:30.581Z,551.3
2022-10-11T01:47:32.486Z,550.9
2022-10-11T01:48:34.674Z,551.4
2022-10-11T01:49:37.149Z,551.3
2022-10-11T01:50:39.399Z,550.8
2022-10-11T01:52:46.602Z,550.6
2022-10-11T01:53:48.856Z,550.6
2022-10-11T01:55:56.042Z,550.6
2022-10-11T01:56:58.226Z,550.6
2022-10-11T01:58:00.428Z,550.8
2022-10-11T01:59:02.618Z,550.4
2022-10-11T02:00:05.096Z,550.5
2022-10-11T02:01:07.667Z,550.9
2022-10-11T02:02:10.190Z,551
2022-10-11T02:03:12.400Z,551
2022-10-11T02:04:14.600Z,551.3
2022-10-11T02:05:17.068Z,551
2022-10-11T02:06:19.544Z,550.8
2022-10-11T02:07:22.014Z,551.3
2022-10-11T02:08:24.505Z,551.2
2022-10-11T02:09:26.775Z,551.7
2022-10-11T02:10:29.253Z,551.4
2022-10-11T02:11:31.189Z,551.7
2022-10-11T02:12:33.660Z,551.7
2022-10-11T02:13:35.555Z,552.6
2022-10-11T02:14:37.760Z,552.2
2022-10-11T02:15:40.241Z,552.4
2022-10-11T02:16:42.753Z,552.2
2022-10-11T02:17:44.943Z,552.5
2022-10-11T02:18:47.151Z,552.4
2022-10-11T02:19:49.612Z,552.7
2022-10-11T02:20:52.090Z,552.3
2022-10-11T02:21:54.564Z,552.5
2022-10-11T02:22:56.764Z,552.3
2022-10-11T02:23:58.663Z,552.5
2022-10-11T02:25:01.242Z,552.5
2022-10-11T02:26:05.422Z,552.6
2022-10-11T02:27:07.834Z,552.9
2022-10-11T02:28:10.677Z,552.6
2022-10-11T02:29:12.887Z,552.8
2022-10-11T02:30:15.365Z,552.6
2022-10-11T02:31:17.538Z,553.1
2022-10-11T02:32:20.056Z,553
2022-10-11T02:33:22.526Z,553.2
2022-10-11T02:34:24.993Z,553.4
2022-10-11T02:35:27.466Z,553.1
2022-10-11T02:36:29.665Z,553.1
2022-10-11T02:37:31.587Z,553.1
2022-10-11T02:38:34.058Z,552.9
2022-10-11T02:39:35.976Z,552.9
2022-10-11T02:40:38.248Z,552.9
2022-10-11T02:41:40.164Z,552.9
2022-10-11T02:42:42.646Z,553
2022-10-11T02:43:44.579Z,553.1
2022-10-11T02:44:47.041Z,553.3
2022-10-11T02:45:49.530Z,553
2022-10-11T02:46:51.728Z,552.9
2022-10-11T02:47:53.992Z,553.2
2022-10-11T02:48:56.464Z,552.8
2022-10-11T02:49:58.932Z,553.1
2022-10-11T02:51:01.419Z,553
2022-10-11T02:52:03.590Z,553
2022-10-11T02:53:05.497Z,553.3
2022-10-11T02:54:07.960Z,553.5
2022-10-11T02:55:10.430Z,552.8
2022-10-11T02:56:12.950Z,553.1
2022-10-11T02:57:15.140Z,553
2022-10-11T02:58:17.314Z,553.2
2022-10-11T02:59:19.786Z,553.2
2022-10-11T03:00:22.304Z,552.8
2022-10-11T03:01:24.642Z,553.1
2022-10-11T03:02:26.895Z,552.5
2022-10-11T03:03:29.404Z,552.6
2022-10-11T03:04:31.864Z,552.5
2022-10-11T03:05:34.063Z,551.9
2022-10-11T03:06:36.261Z,551.9
2022-10-11T03:07:38.738Z,551.7
2022-10-11T03:08:41.206Z,551.6
2022-10-11T03:09:43.686Z,551.7
2022-10-11T03:10:46.161Z,551.7
2022-10-11T03:11:48.702Z,551.3
2022-10-11T03:12:51.171Z,551.4
2022-10-11T03:13:53.648Z,551.3
2022-10-11T03:14:55.866Z,550.9
2022-10-11T03:18:08.050Z,550.8
2022-10-11T03:19:10.274Z,550.7
2022-10-11T03:20:12.222Z,550.6
2022-10-11T03:21:14.135Z,550.3
2022-10-11T03:22:16.330Z,550.4
2022-10-11T03:23:18.800Z,550.3
2022-10-11T03:24:20.999Z,550.1
2022-10-11T03:25:23.464Z,549.9
2022-10-11T03:26:25.946Z,549.6
2022-10-11T03:27:28.470Z,549.6
2022-10-11T03:28:31.532Z,550.2
2022-10-11T03:29:33.764Z,549.8
2022-10-11T03:30:35.691Z,550.2
2022-10-11T03:31:37.883Z,549.8
2022-10-11T03:32:40.125Z,549.5
2022-10-11T03:33:42.314Z,549.3
2022-10-11T03:34:44.532Z,549.3
2022-10-11T03:35:46.728Z,549.5
2022-10-11T03:36:48.926Z,549.2
2022-10-11T03:37:50.841Z,549
2022-10-11T03:38:53.312Z,549.1
2022-10-11T03:39:55.501Z,549.1
2022-10-11T03:40:57.982Z,549.2
2022-10-11T03:42:00.173Z,548.9
2022-10-11T03:43:02.494Z,549
2022-10-11T03:44:04.690Z,549.1
2022-10-11T03:45:06.600Z,549.2
2022-10-11T03:46:10.699Z,549.2
2022-10-11T03:47:12.904Z,548.9
2022-10-11T03:48:15.368Z,548.9
2022-10-11T03:49:17.563Z,548.7
2022-10-11T03:50:20.068Z,548.5
2022-10-11T03:51:21.976Z,548.8
2022-10-11T03:52:24.166Z,548.6
2022-10-11T03:53:26.638Z,548.1
2022-10-11T03:54:29.102Z,548.4
2022-10-11T03:55:31.664Z,548
2022-10-11T03:56:34.133Z,547.7
2022-10-11T03:57:36.610Z,547.4
2022-10-11T03:58:39.151Z,547.5
2022-10-11T03:59:41.620Z,547.6
2022-10-11T04:00:44.086Z,547.7
2022-10-11T04:01:46.942Z,547.7
2022-10-11T04:02:49.164Z,547.4
2022-10-11T04:03:51.652Z,547.1
2022-10-11T04:04:53.840Z,547.4
2022-10-11T04:05:56.354Z,547.6
2022-10-11T04:06:58.821Z,546.9
2022-10-11T04:08:01.297Z,547.1
2022-10-11T04:09:02.935Z,547
2022-10-11T04:10:05.123Z,547
2022-10-11T04:11:07.025Z,547.1
2022-10-11T04:12:09.259Z,547.2
2022-10-11T04:13:11.449Z,547.5
2022-10-11T04:14:13.681Z,547.2
2022-10-11T04:15:15.592Z,547.4
2022-10-11T04:16:17.782Z,547.5
2022-10-11T04:17:20.252Z,547.6
2022-10-11T04:18:22.457Z,547.8
2022-10-11T04:19:24.104Z,547.9
2022-10-11T04:20:26.013Z,547.8
2022-10-11T04:21:28.514Z,547.9
2022-10-11T04:22:31.003Z,548.1
2022-10-11T04:23:33.469Z,548.3
2022-10-11T04:24:35.660Z,547.9
2022-10-11T04:25:37.575Z,547.9
2022-10-11T04:26:39.521Z,547.9
2022-10-11T04:27:42.010Z,548.2
2022-10-11T04:28:44.689Z,548
2022-10-11T04:29:47.277Z,548
2022-10-11T04:30:49.473Z,547.9
2022-10-11T04:31:51.681Z,548.4
2022-10-11T04:32:53.604Z,548.2
2022-10-11T04:33:55.796Z,548.1
2022-10-11T04:34:58.285Z,548.3
2022-10-11T04:36:00.806Z,548.2
2022-10-11T04:37:03.333Z,548.3
2022-10-11T04:38:05.260Z,548.1
2022-10-11T04:39:07.450Z,547.7
2022-10-11T04:40:10.068Z,547.8
2022-10-11T04:41:12.297Z,548.1
2022-10-11T04:42:14.768Z,547.8
2022-10-11T04:43:17.237Z,547.9
2022-10-11T04:44:19.444Z,548.2
2022-10-11T04:45:22.061Z,548.1
2022-10-11T04:46:23.983Z,548.3
2022-10-11T04:47:26.169Z,548.1
2022-10-11T04:48:28.376Z,548.5
2022-10-11T04:49:30.569Z,548.8
2022-10-11T04:50:32.781Z,548.2
2022-10-11T04:51:34.975Z,548.6
2022-10-11T04:52:37.492Z,548.4
2022-10-11T04:53:39.956Z,548.6
2022-10-11T04:54:42.137Z,548.6
2022-10-11T04:55:44.607Z,548.4
2022-10-11T04:56:46.812Z,548.2
2022-10-11T04:57:49.286Z,548.2
2022-10-11T04:58:51.770Z,548.1
2022-10-11T04:59:54.240Z,548
2022-10-11T05:00:56.574Z,548.3
2022-10-11T05:01:59.362Z,548.3
2022-10-11T05:03:01.960Z,548.1
2022-10-11T05:04:04.159Z,548.1
2022-10-11T05:05:06.382Z,548.3
2022-10-11T05:06:11.231Z,547.9
2022-10-11T05:07:13.697Z,548
2022-10-11T05:08:16.195Z,547.7
2022-10-11T05:09:18.389Z,547.9
2022-10-11T05:10:20.608Z,548.1
2022-10-11T05:11:22.817Z,548.1
2022-10-11T05:12:25.293Z,547.9
2022-10-11T05:13:27.492Z,547.8
2022-10-11T05:14:29.703Z,547.5
2022-10-11T05:15:31.620Z,547.9
2022-10-11T05:16:33.588Z,547.7
2022-10-11T05:17:35.783Z,548
2022-10-11T05:18:38.271Z,547.9
2022-10-11T05:19:40.462Z,547.7
2022-10-11T05:20:42.669Z,547.2
2022-10-11T05:21:44.866Z,547.7
2022-10-11T05:22:47.335Z,547.5
2022-10-11T05:23:49.864Z,547.7
2022-10-11T05:24:52.339Z,547.6
2022-10-11T05:25:54.798Z,547.5
2022-10-11T05:28:01.990Z,547.6
2022-10-11T05:29:04.995Z,547.4
2022-10-11T05:30:07.487Z,547.2
2022-10-11T05:31:09.402Z,547.3
2022-10-11T05:32:11.948Z,547.1
2022-10-11T05:33:14.145Z,547.2
2022-10-11T05:34:16.614Z,546.9
2022-10-11T05:35:18.815Z,546.7
2022-10-11T05:36:21.288Z,546.7
2022-10-11T05:37:23.752Z,546.6
2022-10-11T05:38:26.229Z,546.2
2022-10-11T05:39:28.763Z,546.3
2022-10-11T05:40:30.670Z,546.5
2022-10-11T05:41:32.596Z,546.3
2022-10-11T05:42:35.086Z,546.1
2022-10-11T05:43:37.634Z,546.2
2022-10-11T05:44:39.827Z,546.3
2022-10-11T05:45:42.033Z,546.2
2022-10-11T05:46:44.510Z,546.2
2022-10-11T05:47:47.058Z,546.1
2022-10-11T05:48:49.531Z,546
2022-10-11T05:49:51.998Z,545.7
2022-10-11T05:50:54.202Z,545.1
2022-10-11T05:51:56.669Z,545.3
2022-10-11T05:52:58.883Z,545
2022-10-11T05:54:01.089Z,544.9
2022-10-11T05:55:03.596Z,544.4
2022-10-11T05:56:08.317Z,544.8
2022-10-11T05:57:10.690Z,544.7
2022-10-11T05:58:12.925Z,544.4
2022-10-11T05:59:15.131Z,544.2
2022-10-11T06:00:17.038Z,544.1
2022-10-11T06:01:20.019Z,544.3
2022-10-11T06:02:21.698Z,543.8
2022-10-11T06:03:24.241Z,544.2
2022-10-11T06:04:26.713Z,544.1
2022-10-11T06:05:28.910Z,544.1
2022-10-11T06:06:31.400Z,543.7
2022-10-11T06:07:33.873Z,544.3
2022-10-11T06:08:36.066Z,544
2022-10-11T06:09:38.543Z,544.1
2022-10-11T06:10:41.081Z,544.3
2022-10-11T06:11:43.286Z,544
2022-10-11T06:12:45.753Z,544.2
2022-10-11T06:13:48.430Z,544.4
2022-10-11T06:14:50.632Z,544.2
2022-10-11T06:15:52.827Z,544.2
2022-10-11T06:16:55.297Z,544.3
2022-10-11T06:17:57.792Z,544.3
2022-10-11T06:19:00.057Z,544.2
2022-10-11T06:20:02.533Z,544.5
2022-10-11T06:21:04.440Z,544.6
2022-10-11T06:22:06.363Z,544.5
2022-10-11T06:23:08.585Z,543.8
2022-10-11T06:24:10.780Z,544.9
2022-10-11T06:25:12.990Z,544.4
2022-10-11T06:26:15.541Z,544.5
2022-10-11T06:27:17.757Z,544.4
2022-10-11T06:28:20.602Z,544.1
2022-10-11T06:29:22.828Z,543.6
2022-10-11T06:30:24.784Z,543.9
2022-10-11T06:31:26.725Z,543.9
2022-10-11T06:32:28.932Z,544.3
2022-10-11T06:33:31.149Z,543.5
2022-10-11T06:34:33.719Z,543.8
2022-10-11T06:35:36.201Z,544
2022-10-11T06:36:38.124Z,543.8
2022-10-11T06:37:40.617Z,543.6
2022-10-11T06:39:47.538Z,543.5
2022-10-11T06:40:50.011Z,543.3
2022-10-11T06:41:52.264Z,543.2
2022-10-11T06:42:54.164Z,542.9
2022-10-11T06:43:56.380Z,543
2022-10-11T06:44:58.857Z,542.9
2022-10-11T06:46:01.456Z,543.1
2022-10-11T06:47:03.734Z,542.8
2022-10-11T06:48:06.218Z,542.5
2022-10-11T06:49:07.586Z,542.6
2022-10-11T06:50:10.136Z,542.8
2022-10-11T06:51:12.354Z,542.5
2022-10-11T06:52:14.832Z,542.3
2022-10-11T06:53:17.299Z,542.3
2022-10-11T06:54:19.781Z,541.7
2022-10-11T06:55:22.450Z,541.9
2022-10-11T06:56:24.368Z,541.5
2022-10-11T06:57:26.895Z,541.6
2022-10-11T06:58:28.556Z,541.6
2022-10-11T06:59:30.758Z,541.4
2022-10-11T07:00:33.233Z,541.4
2022-10-11T07:01:35.859Z,541.7
2022-10-11T07:02:38.088Z,541.5
2022-10-11T07:03:40.269Z,541.2
2022-10-11T07:04:42.474Z,541.2
2022-10-11T07:05:44.998Z,541.2
2022-10-11T07:06:47.198Z,541.3
2022-10-11T07:07:49.682Z,541
2022-10-11T07:08:52.200Z,541.4
2022-10-11T07:09:54.681Z,541
2022-10-11T07:10:56.331Z,540.8
2022-10-11T07:11:58.553Z,541
2022-10-11T07:13:01.077Z,540.8
2022-10-11T07:14:03.562Z,540.8
2022-10-11T07:15:05.792Z,540.5
2022-10-11T07:16:10.621Z,540.6
2022-10-11T07:17:12.815Z,540.2
2022-10-11T07:18:15.456Z,540
2022-10-11T07:19:17.984Z,540.1
2022-10-11T07:20:20.222Z,540
2022-10-11T07:21:22.500Z,540.2
2022-10-11T07:22:25.001Z,539.9
2022-10-11T07:23:26.915Z,539.9
2022-10-11T07:24:29.397Z,539.7
2022-10-11T07:25:32.547Z,539.6
2022-10-11T07:27:39.739Z,539.6
2022-10-11T07:28:42.746Z,539.5
2022-10-11T07:29:44.971Z,539.9
2022-10-11T07:30:47.151Z,539.6
2022-10-11T07:31:49.099Z,539.8
2022-10-11T07:32:51.324Z,539.6
2022-10-11T07:33:54.037Z,539.7
2022-10-11T07:34:56.616Z,539.4
2022-10-11T07:35:59.107Z,539.5
2022-10-11T07:37:01.454Z,539.3
2022-10-11T07:38:03.670Z,539.2
2022-10-11T07:39:05.874Z,539.4
2022-10-11T07:40:08.065Z,539.1
2022-10-11T07:41:09.993Z,539.3
2022-10-11T07:42:12.217Z,539.1
2022-10-11T07:43:14.421Z,539.1
2022-10-11T07:44:16.987Z,539.1
2022-10-11T07:45:19.193Z,538.7
2022-10-11T07:46:21.687Z,538.8
2022-10-11T07:47:24.149Z,538.5
2022-10-11T07:48:26.378Z,538.4
2022-10-11T07:49:28.589Z,538.3
2022-10-11T07:50:30.516Z,538.2
2022-10-11T07:51:32.999Z,538.8
2022-10-11T07:52:35.528Z,538.4
2022-10-11T07:53:37.719Z,538.4
2022-10-11T07:54:40.194Z,538.3
2022-10-11T07:55:42.092Z,538.4
2022-10-11T07:56:44.295Z,538.3
2022-10-11T07:57:46.236Z,538.4
2022-10-11T07:58:48.724Z,537.8
2022-10-11T07:59:52.436Z,538.4
2022-10-11T08:00:55.358Z,538.2
2022-10-11T08:01:58.073Z,538.2
2022-10-11T08:03:00.019Z,538.4
2022-10-11T08:04:02.218Z,538.4
2022-10-11T08:05:04.459Z,538.1
2022-10-11T08:06:10.011Z,538.1
2022-10-11T08:07:12.638Z,538.2
2022-10-11T08:08:14.920Z,537.9
2022-10-11T08:09:17.417Z,538
2022-10-11T08:10:19.622Z,537.8
2022-10-11T08:11:22.159Z,537.5
2022-10-11T08:12:24.358Z,537.8
2022-10-11T08:13:26.845Z,537.6
2022-10-11T08:14:29.034Z,537.5
2022-10-11T08:15:31.616Z,537.4
2022-10-11T08:16:34.210Z,537.4
2022-10-11T08:17:36.727Z,537.7
2022-10-11T08:18:39.215Z,537.3
2022-10-11T08:19:41.703Z,537.5
2022-10-11T08:20:44.176Z,537.3
2022-10-11T08:21:46.658Z,537.5
2022-10-11T08:22:48.855Z,537.3
2022-10-11T08:23:51.397Z,537.2
2022-10-11T08:24:53.689Z,537.4
2022-10-11T08:25:56.162Z,537.1
2022-10-11T08:26:58.413Z,537.3
2022-10-11T08:28:00.882Z,537.1
2022-10-11T08:29:03.937Z,537.2
2022-10-11T08:30:06.138Z,537
2022-10-11T08:31:08.668Z,536.5
2022-10-11T08:32:11.177Z,536.7
2022-10-11T08:33:13.385Z,536.7
2022-10-11T08:34:15.860Z,536.7
2022-10-11T08:35:18.065Z,536.4
2022-10-11T08:36:20.276Z,536.6
2022-10-11T08:37:23.286Z,536.7
2022-10-11T08:38:25.757Z,536.5
2022-10-11T08:39:28.332Z,536.3
2022-10-11T08:41:35.799Z,536.5
2022-10-11T08:42:37.991Z,536.1
2022-10-11T08:43:39.911Z,536.2
2022-10-11T08:45:47.105Z,536.3
2022-10-11T08:46:49.641Z,536.1
2022-10-11T08:47:52.122Z,536.2
2022-10-11T08:48:54.593Z,536.2
2022-10-11T08:49:56.800Z,536.6
2022-10-11T08:50:58.450Z,536.2
2022-10-11T08:52:00.963Z,536.3
2022-10-11T08:53:02.865Z,536.3
2022-10-11T08:55:10.543Z,535.9
2022-10-11T08:56:12.749Z,536
2022-10-11T08:57:14.959Z,536.3
2022-10-11T08:58:17.138Z,536.2
2022-10-11T08:59:19.622Z,536.3
2022-10-11T09:00:22.468Z,536.2
2022-10-11T09:01:25.239Z,536.3
2022-10-11T09:03:35.144Z,536.3
2022-10-11T09:04:37.345Z,536.1
2022-10-11T09:05:39.252Z,536
2022-10-11T09:06:41.446Z,536.4
2022-10-11T09:07:43.647Z,536.1
2022-10-11T09:08:45.578Z,536.2
2022-10-11T09:09:47.788Z,536
2022-10-11T09:10:50.071Z,536.1
2022-10-11T09:11:52.009Z,536.1
2022-10-11T09:12:54.870Z,536
2022-10-11T09:13:57.051Z,536
2022-10-11T09:14:59.251Z,536.2
2022-10-11T09:16:01.877Z,536.2
2022-10-11T09:17:04.396Z,536.1
2022-10-11T09:18:06.638Z,535.5
2022-10-11T09:19:09.114Z,535.7
2022-10-11T09:20:11.589Z,535.6
2022-10-11T09:21:13.797Z,535.9
2022-10-11T09:22:16.286Z,536
2022-10-11T09:23:18.482Z,536.2
2022-10-11T09:24:20.962Z,535.9
2022-10-11T09:25:22.594Z,536.3
2022-10-11T09:26:24.878Z,536.6
2022-10-11T09:28:32.292Z,536
2022-10-11T09:29:34.788Z,536.4
2022-10-11T09:30:36.986Z,536.2
2022-10-11T09:31:39.191Z,536.6
2022-10-11T09:32:41.394Z,536.7
2022-10-11T09:33:43.915Z,536.4
2022-10-11T09:34:46.390Z,536.3
2022-10-11T09:35:48.581Z,536.4
2022-10-11T09:36:50.534Z,536.6
2022-10-11T09:37:53.021Z,536.7
2022-10-11T09:38:54.935Z,536
2022-10-11T09:39:57.121Z,536.5
2022-10-11T09:40:59.325Z,536.5
2022-10-11T09:42:01.590Z,536.1
2022-10-11T09:43:03.525Z,536.9
2022-10-11T09:44:05.163Z,536.6
2022-10-11T09:45:07.372Z,536.3
2022-10-11T09:46:10.440Z,536.5
2022-10-11T09:47:12.918Z,536.5
2022-10-11T09:48:15.122Z,536.4
2022-10-11T09:49:17.342Z,536.5
2022-10-11T09:50:20.119Z,536.6
2022-10-11T09:51:23.010Z,536.5
2022-10-11T09:52:25.498Z,536.6
2022-10-11T09:53:27.431Z,537
2022-10-11T09:54:29.622Z,536.6
2022-10-11T09:55:32.099Z,537
2022-10-11T09:56:34.298Z,536.8
2022-10-11T09:57:36.575Z,536.8
2022-10-11T09:58:38.772Z,536.6
2022-10-11T09:59:40.978Z,536.9
2022-10-11T10:00:43.450Z,537
2022-10-11T10:01:46.283Z,536.9
2022-10-11T10:02:48.826Z,536.6
2022-10-11T10:03:51.321Z,536.4
2022-10-11T10:04:53.558Z,536.5
2022-10-11T10:05:56.038Z,536.7
2022-10-11T10:06:57.957Z,536.2
2022-10-11T10:09:05.421Z,536.2
2022-10-11T10:10:07.893Z,536.2
2022-10-11T10:11:10.391Z,536.1
2022-10-11T10:12:12.307Z,536
2022-10-11T10:13:14.295Z,536.1
2022-10-11T10:14:16.760Z,536.1
2022-10-11T10:15:19.249Z,536.3
2022-10-11T10:16:21.445Z,536.4
2022-10-11T10:17:23.925Z,536.2
2022-10-11T10:18:25.862Z,536.5
2022-10-11T10:19:28.363Z,536
2022-10-11T10:20:30.889Z,536.2
2022-10-11T10:21:33.367Z,536.2
2022-10-11T10:22:35.846Z,536.1
2022-10-11T10:23:37.768Z,536.2
2022-10-11T10:24:39.978Z,536.2
2022-10-11T10:26:47.174Z,536
2022-10-11T10:27:48.803Z,536.3
2022-10-11T10:28:52.161Z,535.7
2022-10-11T10:29:54.433Z,536.2
2022-10-11T10:30:56.642Z,535.9
2022-10-11T10:33:04.120Z,536.2
2022-10-11T10:34:06.310Z,536.1
2022-10-11T10:35:08.790Z,536.4
2022-10-11T10:36:11.707Z,536.1
2022-10-11T10:37:13.910Z,536.3
2022-10-11T10:38:16.118Z,536.2
2022-10-11T10:39:18.325Z,536.1
2022-10-11T10:40:20.807Z,536.1
2022-10-11T10:41:23.003Z,535.9
2022-10-11T10:42:25.193Z,536.2
2022-10-11T10:43:27.395Z,536.3
2022-10-11T10:44:29.751Z,536.5
2022-10-11T10:45:32.247Z,536.6
2022-10-11T10:46:34.732Z,536.5
2022-10-11T10:47:37.208Z,536.6
2022-10-11T10:50:49.095Z,536.9
2022-10-11T10:51:51.606Z,537
2022-10-11T10:52:53.805Z,537
2022-10-11T10:53:56.271Z,537.3
2022-10-11T10:54:58.484Z,537
2022-10-11T10:56:00.945Z,536.8
2022-10-11T10:57:03.156Z,537.2
2022-10-11T10:58:05.363Z,537
2022-10-11T10:59:07.566Z,537
2022-10-11T11:00:09.542Z,537.3
2022-10-11T11:01:12.018Z,537.1
2022-10-11T11:03:19.225Z,537.2
2022-10-11T11:04:21.398Z,537.1
2022-10-11T11:05:23.870Z,537.4
2022-10-11T11:06:25.775Z,537.2
2022-10-11T11:07:28.283Z,537.9
2022-10-11T11:08:30.756Z,537.5
2022-10-11T11:09:33.250Z,537.6
2022-10-11T11:10:35.169Z,537.7
2022-10-11T11:11:36.795Z,537.9
2022-10-11T11:12:38.990Z,537.7
2022-10-11T11:13:41.466Z,537.6
2022-10-11T11:14:43.933Z,538.1
2022-10-11T11:15:46.267Z,538.1
2022-10-11T11:16:48.749Z,538.4
2022-10-11T11:17:50.953Z,538.2
2022-10-11T11:18:53.302Z,538.4
2022-10-11T11:19:55.796Z,538.3
2022-10-11T11:20:58.271Z,538.4
2022-10-11T11:22:00.194Z,538.4
2022-10-11T11:23:02.487Z,538.3
2022-10-11T11:24:04.676Z,538.5
2022-10-11T11:25:07.156Z,538.4
2022-10-11T11:26:10.571Z,538.5
2022-10-11T11:27:12.772Z,538.7
2022-10-11T11:28:15.281Z,538.6
2022-10-11T11:29:17.510Z,538.7
2022-10-11T11:30:19.991Z,538.8
2022-10-11T11:31:22.546Z,538.8
2022-10-11T11:32:24.761Z,538.9
2022-10-11T11:33:26.948Z,539.3
2022-10-11T11:34:29.437Z,539.1
2022-10-11T11:35:31.618Z,539
2022-10-11T11:36:34.113Z,539.3
2022-10-11T11:37:36.311Z,539.5
2022-10-11T11:38:38.846Z,539.1
2022-10-11T11:39:40.201Z,539.2
2022-10-11T11:40:42.408Z,539.3
2022-10-11T11:41:44.331Z,539.4
2022-10-11T11:42:46.536Z,539.5
2022-10-11T11:43:48.709Z,539.4
2022-10-11T11:44:50.613Z,539.2
2022-10-11T11:45:52.809Z,539.3
2022-10-11T11:46:55.376Z,539.3
2022-10-11T11:47:57.847Z,539.2
2022-10-11T11:49:00.044Z,539.2
2022-10-11T11:50:02.522Z,539.3
2022-10-11T11:51:07.169Z,539.3
2022-10-11T11:52:09.890Z,539.3
2022-10-11T11:53:12.070Z,539.3
2022-10-11T11:54:14.583Z,539.2
2022-10-11T11:55:16.786Z,539.4
2022-10-11T11:56:19.261Z,539.5
2022-10-11T11:57:21.729Z,539.4
2022-10-11T11:58:23.439Z,539.2
2022-10-11T11:59:25.916Z,539.3
2022-10-11T12:00:28.406Z,539.1
2022-10-11T12:02:35.957Z,539.2
2022-10-11T12:04:43.428Z,539.4
2022-10-11T12:05:45.627Z,539.3
2022-10-11T12:07:52.817Z,539.6
2022-10-11T12:08:55.004Z,539.8
2022-10-11T12:09:57.239Z,540.1
2022-10-11T12:10:59.436Z,539.9
2022-10-11T12:12:01.108Z,539.9
2022-10-11T12:13:03.301Z,540
2022-10-11T12:14:05.527Z,539.8
2022-10-11T12:15:08.002Z,539.9
2022-10-11T12:16:10.487Z,540.4
2022-10-11T12:17:12.973Z,540.4
2022-10-11T12:18:15.535Z,540.2
2022-10-11T12:19:18.014Z,540.6
2022-10-11T12:20:19.980Z,540.5
2022-10-11T12:21:22.180Z,540.6
2022-10-11T12:22:24.401Z,540.6
2022-10-11T12:23:26.882Z,540.3
2022-10-11T12:24:29.097Z,540.6
2022-10-11T12:25:31.645Z,540.7
2022-10-11T12:26:33.849Z,540.8
2022-10-11T12:27:36.324Z,540.7
2022-10-11T12:28:38.984Z,540.9
2022-10-11T12:29:41.196Z,540.9
2022-10-11T12:30:43.419Z,540.9
2022-10-11T12:32:50.604Z,541.5
2022-10-11T12:33:52.925Z,541.3
2022-10-11T12:34:55.861Z,541.6
2022-10-11T12:35:59.547Z,541.5
2022-10-11T12:38:10.279Z,541.5
2022-10-11T12:39:12.460Z,541.7
2022-10-11T12:40:14.981Z,541.4
2022-10-11T12:41:17.564Z,541.6
2022-10-11T12:42:19.777Z,541.4
2022-10-11T12:43:22.245Z,541.8
2022-10-11T12:44:24.763Z,541.8
2022-10-11T12:45:26.955Z,541.8
2022-10-11T12:46:29.163Z,541.7
2022-10-11T12:47:31.361Z,541.4
2022-10-11T12:49:38.609Z,541.4
2022-10-11T12:50:40.823Z,541.8
2022-10-11T12:51:42.749Z,541.9
2022-10-11T12:52:45.230Z,541.7
2022-10-11T12:54:52.711Z,541.9
2022-10-11T12:55:55.194Z,541.7
2022-10-11T12:56:57.442Z,542
2022-10-11T12:57:59.929Z,542.1
2022-10-11T12:59:02.128Z,542.5
2022-10-11T13:00:04.306Z,542.3
2022-10-11T13:01:06.736Z,542.5
2022-10-11T13:02:08.966Z,542.8
2022-10-11T13:03:11.203Z,542.6
2022-10-11T13:04:13.421Z,542.9
2022-10-11T13:05:15.675Z,542.8
2022-10-11T13:06:18.145Z,542.8
2022-10-11T13:07:20.634Z,542.7
2022-10-11T13:08:23.135Z,542.7
2022-10-11T13:09:25.401Z,542.5
2022-10-11T13:10:27.614Z,542.5
2022-10-11T13:11:29.544Z,542.3
2022-10-11T13:12:31.789Z,542.2
2022-10-11T13:13:33.724Z,542.4
2022-10-11T13:14:35.935Z,542.2
2022-10-11T13:15:38.414Z,542.5
2022-10-11T13:16:40.914Z,542.7
2022-10-11T13:17:43.467Z,542.3
2022-10-11T13:18:45.947Z,542.4
2022-10-11T13:19:48.440Z,541.9
2022-10-11T13:20:51.036Z,542.6
2022-10-11T13:21:53.513Z,542.5
2022-10-11T13:22:55.735Z,542.5
2022-10-11T13:23:58.217Z,542.7
2022-10-11T13:25:00.694Z,542.2
2022-10-11T13:26:02.615Z,542.1
2022-10-11T13:27:04.818Z,542.1
2022-10-11T13:28:07.085Z,542.3
2022-10-11T13:29:09.312Z,542.2
2022-10-11T13:30:11.796Z,542.2
2022-10-11T13:31:13.998Z,542
2022-10-11T13:32:16.537Z,542.1
2022-10-11T13:33:18.758Z,542.4
2022-10-11T13:35:26.913Z,542.8
2022-10-11T13:36:29.547Z,542.8
2022-10-11T13:37:32.063Z,542.6
2022-10-11T13:38:34.245Z,542.2
2022-10-11T13:39:36.177Z,542.9
2022-10-11T13:40:38.646Z,542.3
2022-10-11T13:41:40.576Z,542.7
2022-10-11T13:42:42.787Z,542.8
2022-10-11T13:43:45.309Z,543
2022-10-11T13:44:47.520Z,542.6
2022-10-11T13:45:49.722Z,543.2
2022-10-11T13:46:52.206Z,543.1
2022-10-11T13:47:54.412Z,543
2022-10-11T13:48:56.606Z,542.9
2022-10-11T13:49:59.086Z,543.3
2022-10-11T13:51:01.016Z,542.9
2022-10-11T13:52:03.310Z,543.4
2022-10-11T13:53:05.505Z,543.2
2022-10-11T13:55:13.476Z,542.8
2022-10-11T13:56:15.676Z,543.2
2022-10-11T13:57:17.889Z,543
2022-10-11T13:58:21.088Z,542.8